Jacksonville, Florida
Current Conditions -  °F | °C
As of 4:56 AM on Tuesday 27 Jan 2015 (Local Time) from KJAX Reporting Station
Clear Clear  
Wind Chill: 34°   Ceiling: Unl
Heat Index: 39°   Visibility: 10mi
Dew Point: 34°   Wind: 7mph
Humidity: 82%   Direction: 280°W
Pressure: 29.94"   Gusts: NA
Location:  30.32°N, 81.66°W
Report Text: KJAX 270956Z 28006KT 10SM CLR 04/01 A2994 RMK AO2 SLP138 T00390011
Loading
Personal Weather Stations






























Interactive Weather Map New forecast layout! Learn more

10-Day Weather Forecast

Advertisements
Track Severe Weather on mobile